sensor_id;sensor_type;location;lat;lon;timestamp;temperature;humidity
4985;DHT22;2509;49.902;8.600;2022-12-29T00:00:13;10.20;99.90
4985;DHT22;2509;49.902;8.600;2022-12-29T00:03:15;10.20;99.90
4985;DHT22;2509;49.902;8.600;2022-12-29T00:06:17;10.20;99.90
4985;DHT22;2509;49.902;8.600;2022-12-29T00:09:19;10.20;99.90
4985;DHT22;2509;49.902;8.600;2022-12-29T00:12:20;10.20;99.90
4985;DHT22;2509;49.902;8.600;2022-12-29T00:15:23;10.10;99.90
4985;DHT22;2509;49.902;8.600;2022-12-29T00:18:39;10.10;99.90
4985;DHT22;2509;49.902;8.600;2022-12-29T00:21:41;10.20;99.90
4985;DHT22;2509;49.902;8.600;2022-12-29T00:25:00;10.20;99.90
4985;DHT22;2509;49.902;8.600;2022-12-29T00:28:19;10.20;99.90
4985;DHT22;2509;49.902;8.600;2022-12-29T00:31:40;10.20;99.90
4985;DHT22;2509;49.902;8.600;2022-12-29T00:34:59;10.20;99.90
4985;DHT22;2509;49.902;8.600;2022-12-29T00:38:10;10.30;99.90
4985;DHT22;2509;49.902;8.600;2022-12-29T00:41:31;10.40;99.90
4985;DHT22;2509;49.902;8.600;2022-12-29T00:44:50;10.50;99.90
4985;DHT22;2509;49.902;8.600;2022-12-29T00:47:53;10.50;99.90
4985;DHT22;2509;49.902;8.600;2022-12-29T00:50:55;10.50;99.90
4985;DHT22;2509;49.902;8.600;2022-12-29T00:53:56;10.60;99.90
4985;DHT22;2509;49.902;8.600;2022-12-29T00:56:58;10.70;99.90
4985;DHT22;2509;49.902;8.600;2022-12-29T01:00:00;10.80;99.90
4985;DHT22;2509;49.902;8.600;2022-12-29T01:03:03;10.80;99.90
4985;DHT22;2509;49.902;8.600;2022-12-29T01:06:07;10.90;99.90
4985;DHT22;2509;49.902;8.600;2022-12-29T01:09:10;10.90;99.90
4985;DHT22;2509;49.902;8.600;2022-12-29T01:12:29;10.90;99.90
4985;DHT22;2509;49.902;8.600;2022-12-29T01:15:49;10.90;99.90
4985;DHT22;2509;49.902;8.600;2022-12-29T01:18:52;10.90;99.90
4985;DHT22;2509;49.902;8.600;2022-12-29T01:21:54;11.00;99.90
4985;DHT22;2509;49.902;8.600;2022-12-29T01:24:56;11.00;99.90
4985;DHT22;2509;49.902;8.600;2022-12-29T01:27:57;11.00;99.90
4985;DHT22;2509;49.902;8.600;2022-12-29T01:31:00;11.00;99.90
4985;DHT22;2509;49.902;8.600;2022-12-29T01:34:03;11.00;99.90
4985;DHT22;2509;49.902;8.600;2022-12-29T01:37:05;11.00;99.90
4985;DHT22;2509;49.902;8.600;2022-12-29T01:40:08;11.00;99.90
4985;DHT22;2509;49.902;8.600;2022-12-29T01:43:11;11.00;99.90
4985;DHT22;2509;49.902;8.600;2022-12-29T01:46:20;10.90;99.90
4985;DHT22;2509;49.902;8.600;2022-12-29T01:49:27;11.00;99.90
4985;DHT22;2509;49.902;8.600;2022-12-29T01:52:32;11.00;99.90
4985;DHT22;2509;49.902;8.600;2022-12-29T01:55:38;11.00;99.90
4985;DHT22;2509;49.902;8.600;2022-12-29T01:58:44;11.00;99.90
4985;DHT22;2509;49.902;8.600;2022-12-29T02:01:47;11.10;99.90
4985;DHT22;2509;49.902;8.600;2022-12-29T02:04:52;11.20;99.90
4985;DHT22;2509;49.902;8.600;2022-12-29T02:07:56;11.30;99.90
4985;DHT22;2509;49.902;8.600;2022-12-29T02:10:59;11.40;99.90
4985;DHT22;2509;49.902;8.600;2022-12-29T02:14:07;11.40;99.90
4985;DHT22;2509;49.902;8.600;2022-12-29T02:17:19;11.40;99.90
4985;DHT22;2509;49.902;8.600;2022-12-29T02:20:58;11.40;99.90
4985;DHT22;2509;49.902;8.600;2022-12-29T02:24:33;11.40;99.90
4985;DHT22;2509;49.902;8.600;2022-12-29T02:27:48;11.40;99.90
4985;DHT22;2509;49.902;8.600;2022-12-29T02:31:01;11.40;99.90
4985;DHT22;2509;49.902;8.600;2022-12-29T02:34:13;11.40;99.90
4985;DHT22;2509;49.902;8.600;2022-12-29T02:37:22;11.40;99.90
4985;DHT22;2509;49.902;8.600;2022-12-29T02:40:31;11.50;99.90
4985;DHT22;2509;49.902;8.600;2022-12-29T02:43:41;11.40;99.90
4985;DHT22;2509;49.902;8.600;2022-12-29T02:46:51;11.40;99.90
4985;DHT22;2509;49.902;8.600;2022-12-29T02:49:59;11.40;99.90
4985;DHT22;2509;49.902;8.600;2022-12-29T02:53:05;11.30;99.90
4985;DHT22;2509;49.902;8.600;2022-12-29T02:56:08;11.20;99.90
4985;DHT22;2509;49.902;8.600;2022-12-29T02:59:09;11.30;99.90
4985;DHT22;2509;49.902;8.600;2022-12-29T03:02:30;11.30;99.90
4985;DHT22;2509;49.902;8.600;2022-12-29T03:05:43;11.40;99.90
4985;DHT22;2509;49.902;8.600;2022-12-29T03:08:52;11.40;99.90
4985;DHT22;2509;49.902;8.600;2022-12-29T03:11:59;11.30;99.90
4985;DHT22;2509;49.902;8.600;2022-12-29T03:15:13;11.40;99.90
4985;DHT22;2509;49.902;8.600;2022-12-29T03:18:42;11.50;99.90
4985;DHT22;2509;49.902;8.600;2022-12-29T03:21:48;11.50;99.90
4985;DHT22;2509;49.902;8.600;2022-12-29T03:25:11;11.50;99.90
4985;DHT22;2509;49.902;8.600;2022-12-29T03:28:17;11.50;99.90
4985;DHT22;2509;49.902;8.600;2022-12-29T03:31:21;11.60;99.90
4985;DHT22;2509;49.902;8.600;2022-12-29T03:34:26;11.60;99.90
4985;DHT22;2509;49.902;8.600;2022-12-29T03:37:32;11.50;99.90
4985;DHT22;2509;49.902;8.600;2022-12-29T03:40:38;11.50;99.90
4985;DHT22;2509;49.902;8.600;2022-12-29T03:43:41;11.50;99.90
4985;DHT22;2509;49.902;8.600;2022-12-29T03:46:43;11.50;99.90
4985;DHT22;2509;49.902;8.600;2022-12-29T03:49:46;11.50;99.90
4985;DHT22;2509;49.902;8.600;2022-12-29T03:52:48;11.50;99.90
4985;DHT22;2509;49.902;8.600;2022-12-29T03:55:50;11.50;99.90
4985;DHT22;2509;49.902;8.600;2022-12-29T03:58:52;11.50;99.90
4985;DHT22;2509;49.902;8.600;2022-12-29T04:01:53;11.60;99.90
4985;DHT22;2509;49.902;8.600;2022-12-29T04:04:57;11.60;99.90
4985;DHT22;2509;49.902;8.600;2022-12-29T04:07:58;11.70;99.90
4985;DHT22;2509;49.902;8.600;2022-12-29T04:11:00;11.70;99.90
4985;DHT22;2509;49.902;8.600;2022-12-29T04:14:02;11.70;99.90
4985;DHT22;2509;49.902;8.600;2022-12-29T04:17:04;11.70;99.90
4985;DHT22;2509;49.902;8.600;2022-12-29T04:20:08;11.80;99.90
4985;DHT22;2509;49.902;8.600;2022-12-29T04:23:34;11.90;99.90
4985;DHT22;2509;49.902;8.600;2022-12-29T04:26:36;11.90;99.90
4985;DHT22;2509;49.902;8.600;2022-12-29T04:29:38;12.00;99.90
4985;DHT22;2509;49.902;8.600;2022-12-29T04:32:40;11.90;99.90
4985;DHT22;2509;49.902;8.600;2022-12-29T04:35:43;11.80;99.90
4985;DHT22;2509;49.902;8.600;2022-12-29T04:38:45;11.80;99.90
4985;DHT22;2509;49.902;8.600;2022-12-29T04:41:47;11.80;99.90
4985;DHT22;2509;49.902;8.600;2022-12-29T04:44:48;11.70;99.90
4985;DHT22;2509;49.902;8.600;2022-12-29T04:47:50;11.80;99.90
4985;DHT22;2509;49.902;8.600;2022-12-29T04:50:53;11.80;99.90
4985;DHT22;2509;49.902;8.600;2022-12-29T04:53:55;11.80;99.90
4985;DHT22;2509;49.902;8.600;2022-12-29T04:56:57;11.80;99.90
4985;DHT22;2509;49.902;8.600;2022-12-29T04:59:58;11.70;99.90
4985;DHT22;2509;49.902;8.600;2022-12-29T05:03:00;11.70;99.90
4985;DHT22;2509;49.902;8.600;2022-12-29T05:06:03;11.80;99.90
4985;DHT22;2509;49.902;8.600;2022-12-29T05:09:05;11.80;99.90
4985;DHT22;2509;49.902;8.600;2022-12-29T05:12:07;11.80;99.90
4985;DHT22;2509;49.902;8.600;2022-12-29T05:15:10;11.80;99.90
4985;DHT22;2509;49.902;8.600;2022-12-29T05:18:12;11.80;99.90
4985;DHT22;2509;49.902;8.600;2022-12-29T05:21:15;11.80;99.90
4985;DHT22;2509;49.902;8.600;2022-12-29T05:24:17;11.80;99.90
4985;DHT22;2509;49.902;8.600;2022-12-29T05:27:19;11.90;99.90
4985;DHT22;2509;49.902;8.600;2022-12-29T05:30:20;11.90;99.90
4985;DHT22;2509;49.902;8.600;2022-12-29T05:33:22;11.90;99.90
4985;DHT22;2509;49.902;8.600;2022-12-29T05:36:25;11.90;99.90
4985;DHT22;2509;49.902;8.600;2022-12-29T05:39:27;11.80;99.90
4985;DHT22;2509;49.902;8.600;2022-12-29T05:42:29;11.80;99.90
4985;DHT22;2509;49.902;8.600;2022-12-29T05:45:30;11.80;99.90
4985;DHT22;2509;49.902;8.600;2022-12-29T05:48:32;11.90;99.90
4985;DHT22;2509;49.902;8.600;2022-12-29T05:51:35;11.90;99.90
4985;DHT22;2509;49.902;8.600;2022-12-29T05:54:37;12.00;99.90
4985;DHT22;2509;49.902;8.600;2022-12-29T05:57:39;11.90;99.90
4985;DHT22;2509;49.902;8.600;2022-12-29T06:00:41;12.00;99.90
4985;DHT22;2509;49.902;8.600;2022-12-29T06:03:43;12.00;99.90
4985;DHT22;2509;49.902;8.600;2022-12-29T06:06:46;12.10;99.90
4985;DHT22;2509;49.902;8.600;2022-12-29T06:09:48;12.10;99.90
4985;DHT22;2509;49.902;8.600;2022-12-29T06:12:50;12.10;99.90
4985;DHT22;2509;49.902;8.600;2022-12-29T06:15:52;12.20;99.90
4985;DHT22;2509;49.902;8.600;2022-12-29T06:18:53;12.20;99.90
4985;DHT22;2509;49.902;8.600;2022-12-29T06:21:56;12.20;99.90
4985;DHT22;2509;49.902;8.600;2022-12-29T06:24:58;12.30;99.90
4985;DHT22;2509;49.902;8.600;2022-12-29T06:28:02;12.30;99.90
4985;DHT22;2509;49.902;8.600;2022-12-29T06:31:04;12.20;99.90
4985;DHT22;2509;49.902;8.600;2022-12-29T06:34:05;12.20;99.90
4985;DHT22;2509;49.902;8.600;2022-12-29T06:37:08;12.30;99.90
4985;DHT22;2509;49.902;8.600;2022-12-29T06:40:11;12.20;99.90
4985;DHT22;2509;49.902;8.600;2022-12-29T06:43:13;12.30;99.90
4985;DHT22;2509;49.902;8.600;2022-12-29T06:46:14;12.40;99.90
4985;DHT22;2509;49.902;8.600;2022-12-29T06:49:16;12.40;99.90
4985;DHT22;2509;49.902;8.600;2022-12-29T06:52:19;12.30;99.90
4985;DHT22;2509;49.902;8.600;2022-12-29T06:55:21;12.30;99.90
4985;DHT22;2509;49.902;8.600;2022-12-29T06:58:23;12.30;99.90
4985;DHT22;2509;49.902;8.600;2022-12-29T07:01:25;12.30;99.90
4985;DHT22;2509;49.902;8.600;2022-12-29T07:04:27;12.30;99.90
4985;DHT22;2509;49.902;8.600;2022-12-29T07:07:30;12.30;99.90
4985;DHT22;2509;49.902;8.600;2022-12-29T07:10:31;12.30;99.90
4985;DHT22;2509;49.902;8.600;2022-12-29T07:13:33;12.30;99.90
4985;DHT22;2509;49.902;8.600;2022-12-29T07:16:35;12.30;99.90
4985;DHT22;2509;49.902;8.600;2022-12-29T07:19:37;12.30;99.90
4985;DHT22;2509;49.902;8.600;2022-12-29T07:22:40;12.30;99.90
4985;DHT22;2509;49.902;8.600;2022-12-29T07:25:42;12.30;99.90
4985;DHT22;2509;49.902;8.600;2022-12-29T07:28:44;12.30;99.90
4985;DHT22;2509;49.902;8.600;2022-12-29T07:31:46;12.30;99.90
4985;DHT22;2509;49.902;8.600;2022-12-29T07:34:48;12.30;99.90
4985;DHT22;2509;49.902;8.600;2022-12-29T07:37:51;12.40;99.90
4985;DHT22;2509;49.902;8.600;2022-12-29T07:40:56;12.40;99.90
4985;DHT22;2509;49.902;8.600;2022-12-29T07:43:58;12.40;99.90
4985;DHT22;2509;49.902;8.600;2022-12-29T07:47:00;12.30;99.90
4985;DHT22;2509;49.902;8.600;2022-12-29T07:50:02;12.30;99.90
4985;DHT22;2509;49.902;8.600;2022-12-29T07:53:05;12.40;99.90
4985;DHT22;2509;49.902;8.600;2022-12-29T07:56:07;12.40;99.90
4985;DHT22;2509;49.902;8.600;2022-12-29T07:59:09;12.40;99.90
4985;DHT22;2509;49.902;8.600;2022-12-29T08:02:12;12.40;99.90
4985;DHT22;2509;49.902;8.600;2022-12-29T08:05:14;12.40;99.90
4985;DHT22;2509;49.902;8.600;2022-12-29T08:08:17;12.50;99.90
4985;DHT22;2509;49.902;8.600;2022-12-29T08:11:19;12.50;99.90
4985;DHT22;2509;49.902;8.600;2022-12-29T08:14:21;12.50;99.90
4985;DHT22;2509;49.902;8.600;2022-12-29T08:17:23;12.50;99.90
4985;DHT22;2509;49.902;8.600;2022-12-29T08:20:24;12.60;99.90
4985;DHT22;2509;49.902;8.600;2022-12-29T08:23:27;12.50;99.90
4985;DHT22;2509;49.902;8.600;2022-12-29T08:26:29;12.20;99.90
4985;DHT22;2509;49.902;8.600;2022-12-29T08:29:31;12.00;99.90
4985;DHT22;2509;49.902;8.600;2022-12-29T08:32:32;11.90;99.90
4985;DHT22;2509;49.902;8.600;2022-12-29T08:35:34;11.90;99.90
4985;DHT22;2509;49.902;8.600;2022-12-29T08:38:37;11.90;99.90
4985;DHT22;2509;49.902;8.600;2022-12-29T08:41:39;11.90;99.90
4985;DHT22;2509;49.902;8.600;2022-12-29T08:44:41;12.10;99.90
4985;DHT22;2509;49.902;8.600;2022-12-29T08:47:43;12.20;99.90
4985;DHT22;2509;49.902;8.600;2022-12-29T08:50:44;12.40;99.90
4985;DHT22;2509;49.902;8.600;2022-12-29T08:53:47;12.50;99.90
4985;DHT22;2509;49.902;8.600;2022-12-29T08:56:49;12.50;99.90
4985;DHT22;2509;49.902;8.600;2022-12-29T08:59:51;12.60;99.90
4985;DHT22;2509;49.902;8.600;2022-12-29T09:02:53;12.60;99.90
4985;DHT22;2509;49.902;8.600;2022-12-29T09:05:55;12.70;99.90
4985;DHT22;2509;49.902;8.600;2022-12-29T09:08:58;12.80;99.90
4985;DHT22;2509;49.902;8.600;2022-12-29T09:12:00;12.80;99.90
4985;DHT22;2509;49.902;8.600;2022-12-29T09:15:01;12.80;99.90
4985;DHT22;2509;49.902;8.600;2022-12-29T09:18:04;12.80;99.90
4985;DHT22;2509;49.902;8.600;2022-12-29T09:21:06;12.90;99.90
4985;DHT22;2509;49.902;8.600;2022-12-29T09:24:09;12.80;99.90
4985;DHT22;2509;49.902;8.600;2022-12-29T09:27:11;12.80;99.90
4985;DHT22;2509;49.902;8.600;2022-12-29T09:30:13;12.90;99.90
4985;DHT22;2509;49.902;8.600;2022-12-29T09:33:16;12.90;99.90
4985;DHT22;2509;49.902;8.600;2022-12-29T09:36:17;12.90;99.90
4985;DHT22;2509;49.902;8.600;2022-12-29T09:39:20;12.90;99.90
4985;DHT22;2509;49.902;8.600;2022-12-29T09:42:26;12.90;99.90
4985;DHT22;2509;49.902;8.600;2022-12-29T09:45:32;12.90;99.90
4985;DHT22;2509;49.902;8.600;2022-12-29T09:48:37;12.90;99.90
4985;DHT22;2509;49.902;8.600;2022-12-29T09:51:43;12.90;99.90
4985;DHT22;2509;49.902;8.600;2022-12-29T09:54:52;12.90;99.90
4985;DHT22;2509;49.902;8.600;2022-12-29T09:57:56;12.90;99.90
4985;DHT22;2509;49.902;8.600;2022-12-29T10:01:03;12.80;99.90
4985;DHT22;2509;49.902;8.600;2022-12-29T10:04:05;12.80;99.90
4985;DHT22;2509;49.902;8.600;2022-12-29T10:07:12;12.80;99.90
4985;DHT22;2509;49.902;8.600;2022-12-29T10:10:26;12.80;99.90
4985;DHT22;2509;49.902;8.600;2022-12-29T10:13:39;12.80;99.90
4985;DHT22;2509;49.902;8.600;2022-12-29T10:16:51;12.70;99.90
4985;DHT22;2509;49.902;8.600;2022-12-29T10:20:05;12.40;99.90
4985;DHT22;2509;49.902;8.600;2022-12-29T10:23:22;12.10;99.90
4985;DHT22;2509;49.902;8.600;2022-12-29T10:26:40;11.60;99.90
4985;DHT22;2509;49.902;8.600;2022-12-29T10:29:46;10.80;99.90
4985;DHT22;2509;49.902;8.600;2022-12-29T10:32:52;10.20;99.90
4985;DHT22;2509;49.902;8.600;2022-12-29T10:35:55;9.80;99.90
4985;DHT22;2509;49.902;8.600;2022-12-29T10:39:02;9.70;99.90
4985;DHT22;2509;49.902;8.600;2022-12-29T10:42:13;9.70;99.90
4985;DHT22;2509;49.902;8.600;2022-12-29T10:45:16;9.60;99.90
4985;DHT22;2509;49.902;8.600;2022-12-29T10:48:21;9.60;99.90
4985;DHT22;2509;49.902;8.600;2022-12-29T10:51:26;9.60;99.90
4985;DHT22;2509;49.902;8.600;2022-12-29T10:54:32;9.70;99.90
4985;DHT22;2509;49.902;8.600;2022-12-29T10:57:38;9.80;99.90
4985;DHT22;2509;49.902;8.600;2022-12-29T11:00:41;9.90;99.90
4985;DHT22;2509;49.902;8.600;2022-12-29T11:03:54;9.90;99.90
4985;DHT22;2509;49.902;8.600;2022-12-29T11:07:01;9.90;99.90
4985;DHT22;2509;49.902;8.600;2022-12-29T11:10:20;9.90;99.90
4985;DHT22;2509;49.902;8.600;2022-12-29T11:13:28;10.00;99.90
4985;DHT22;2509;49.902;8.600;2022-12-29T11:16:32;10.00;99.90
4985;DHT22;2509;49.902;8.600;2022-12-29T11:19:34;10.00;99.90
4985;DHT22;2509;49.902;8.600;2022-12-29T11:22:43;10.10;99.90
4985;DHT22;2509;49.902;8.600;2022-12-29T11:25:45;10.10;99.90
4985;DHT22;2509;49.902;8.600;2022-12-29T11:29:08;10.20;99.90
4985;DHT22;2509;49.902;8.600;2022-12-29T11:32:17;10.10;99.90
4985;DHT22;2509;49.902;8.600;2022-12-29T11:35:30;10.10;99.90
4985;DHT22;2509;49.902;8.600;2022-12-29T11:38:35;10.20;99.90
4985;DHT22;2509;49.902;8.600;2022-12-29T11:41:37;10.20;99.90
4985;DHT22;2509;49.902;8.600;2022-12-29T11:44:43;10.20;99.90
4985;DHT22;2509;49.902;8.600;2022-12-29T11:47:47;10.20;99.90
4985;DHT22;2509;49.902;8.600;2022-12-29T11:50:52;10.20;99.90
4985;DHT22;2509;49.902;8.600;2022-12-29T11:53:57;10.20;99.90
4985;DHT22;2509;49.902;8.600;2022-12-29T11:57:09;10.30;99.90
4985;DHT22;2509;49.902;8.600;2022-12-29T12:00:20;10.40;99.90
4985;DHT22;2509;49.902;8.600;2022-12-29T12:03:24;10.40;99.90
4985;DHT22;2509;49.902;8.600;2022-12-29T12:06:27;10.40;99.90
4985;DHT22;2509;49.902;8.600;2022-12-29T12:09:35;10.40;99.90
4985;DHT22;2509;49.902;8.600;2022-12-29T12:12:43;10.40;99.90
4985;DHT22;2509;49.902;8.600;2022-12-29T12:15:52;10.40;99.90
4985;DHT22;2509;49.902;8.600;2022-12-29T12:18:58;10.40;99.90
4985;DHT22;2509;49.902;8.600;2022-12-29T12:22:08;10.40;99.90
4985;DHT22;2509;49.902;8.600;2022-12-29T12:25:16;10.30;99.90
4985;DHT22;2509;49.902;8.600;2022-12-29T12:28:21;10.40;99.90
4985;DHT22;2509;49.902;8.600;2022-12-29T12:31:40;10.50;99.90
4985;DHT22;2509;49.902;8.600;2022-12-29T12:34:45;10.50;99.90
4985;DHT22;2509;49.902;8.600;2022-12-29T12:38:01;10.60;99.90
4985;DHT22;2509;49.902;8.600;2022-12-29T12:41:08;10.70;99.90
4985;DHT22;2509;49.902;8.600;2022-12-29T12:44:18;10.80;99.90
4985;DHT22;2509;49.902;8.600;2022-12-29T12:47:46;10.90;99.90
4985;DHT22;2509;49.902;8.600;2022-12-29T12:50:59;11.00;99.90
4985;DHT22;2509;49.902;8.600;2022-12-29T12:54:16;11.00;99.90
4985;DHT22;2509;49.902;8.600;2022-12-29T12:57:29;11.10;99.90
4985;DHT22;2509;49.902;8.600;2022-12-29T13:00:42;11.20;99.90
4985;DHT22;2509;49.902;8.600;2022-12-29T13:04:02;11.40;99.90
4985;DHT22;2509;49.902;8.600;2022-12-29T13:07:15;11.40;99.90
4985;DHT22;2509;49.902;8.600;2022-12-29T13:10:30;11.30;99.90
4985;DHT22;2509;49.902;8.600;2022-12-29T13:13:50;11.40;99.90
4985;DHT22;2509;49.902;8.600;2022-12-29T13:17:01;11.50;99.90
4985;DHT22;2509;49.902;8.600;2022-12-29T13:20:18;11.50;99.90
4985;DHT22;2509;49.902;8.600;2022-12-29T13:23:26;11.70;99.90
4985;DHT22;2509;49.902;8.600;2022-12-29T13:26:32;12.30;99.90
4985;DHT22;2509;49.902;8.600;2022-12-29T13:29:44;12.80;99.90
4985;DHT22;2509;49.902;8.600;2022-12-29T13:32:55;12.60;99.90
4985;DHT22;2509;49.902;8.600;2022-12-29T13:36:04;12.30;99.90
4985;DHT22;2509;49.902;8.600;2022-12-29T13:39:11;12.00;99.90
4985;DHT22;2509;49.902;8.600;2022-12-29T13:42:16;11.80;99.90
4985;DHT22;2509;49.902;8.600;2022-12-29T13:45:22;11.70;99.90
4985;DHT22;2509;49.902;8.600;2022-12-29T13:48:35;11.60;99.90
4985;DHT22;2509;49.902;8.600;2022-12-29T13:51:42;11.60;99.90
4985;DHT22;2509;49.902;8.600;2022-12-29T13:54:52;11.60;99.90
4985;DHT22;2509;49.902;8.600;2022-12-29T13:58:02;11.60;99.90
4985;DHT22;2509;49.902;8.600;2022-12-29T14:01:09;11.60;99.90
4985;DHT22;2509;49.902;8.600;2022-12-29T14:04:21;11.50;99.90
4985;DHT22;2509;49.902;8.600;2022-12-29T14:07:25;11.50;99.90
4985;DHT22;2509;49.902;8.600;2022-12-29T14:10:29;11.50;99.90
4985;DHT22;2509;49.902;8.600;2022-12-29T14:13:38;11.50;99.90
4985;DHT22;2509;49.902;8.600;2022-12-29T14:16:40;11.50;99.90
4985;DHT22;2509;49.902;8.600;2022-12-29T14:19:43;11.50;99.90
4985;DHT22;2509;49.902;8.600;2022-12-29T14:22:58;11.60;99.90
4985;DHT22;2509;49.902;8.600;2022-12-29T14:26:11;11.50;99.90
4985;DHT22;2509;49.902;8.600;2022-12-29T14:29:44;11.60;99.90
4985;DHT22;2509;49.902;8.600;2022-12-29T14:33:02;11.60;99.90
4985;DHT22;2509;49.902;8.600;2022-12-29T14:36:20;11.60;99.90
4985;DHT22;2509;49.902;8.600;2022-12-29T14:39:31;11.50;99.90
4985;DHT22;2509;49.902;8.600;2022-12-29T14:42:33;11.50;99.90
4985;DHT22;2509;49.902;8.600;2022-12-29T14:45:41;11.50;99.90
4985;DHT22;2509;49.902;8.600;2022-12-29T14:48:44;11.40;99.90
4985;DHT22;2509;49.902;8.600;2022-12-29T14:51:47;11.50;99.90
4985;DHT22;2509;49.902;8.600;2022-12-29T14:54:51;11.50;99.90
4985;DHT22;2509;49.902;8.600;2022-12-29T14:57:58;11.60;99.90
4985;DHT22;2509;49.902;8.600;2022-12-29T15:01:02;11.60;99.90
4985;DHT22;2509;49.902;8.600;2022-12-29T15:04:13;11.60;99.90
4985;DHT22;2509;49.902;8.600;2022-12-29T15:07:18;11.50;99.90
4985;DHT22;2509;49.902;8.600;2022-12-29T15:10:20;11.50;99.90
4985;DHT22;2509;49.902;8.600;2022-12-29T15:13:33;11.40;99.90
4985;DHT22;2509;49.902;8.600;2022-12-29T15:16:36;11.30;99.90
4985;DHT22;2509;49.902;8.600;2022-12-29T15:19:38;11.20;99.90
4985;DHT22;2509;49.902;8.600;2022-12-29T15:22:43;11.20;99.90
4985;DHT22;2509;49.902;8.600;2022-12-29T15:25:47;11.10;99.90
4985;DHT22;2509;49.902;8.600;2022-12-29T15:28:52;11.00;99.90
4985;DHT22;2509;49.902;8.600;2022-12-29T15:31:57;10.90;99.90
4985;DHT22;2509;49.902;8.600;2022-12-29T15:34:59;10.90;99.90
4985;DHT22;2509;49.902;8.600;2022-12-29T15:38:13;10.80;99.90
4985;DHT22;2509;49.902;8.600;2022-12-29T15:41:26;10.70;99.90
4985;DHT22;2509;49.902;8.600;2022-12-29T15:44:34;10.60;99.90
4985;DHT22;2509;49.902;8.600;2022-12-29T15:47:39;10.60;99.90
4985;DHT22;2509;49.902;8.600;2022-12-29T15:50:41;10.50;99.90
4985;DHT22;2509;49.902;8.600;2022-12-29T15:53:46;10.40;99.90
4985;DHT22;2509;49.902;8.600;2022-12-29T15:56:49;10.40;99.90
4985;DHT22;2509;49.902;8.600;2022-12-29T15:59:52;10.30;99.90
4985;DHT22;2509;49.902;8.600;2022-12-29T16:02:58;10.30;99.90
4985;DHT22;2509;49.902;8.600;2022-12-29T16:06:08;10.30;99.90
4985;DHT22;2509;49.902;8.600;2022-12-29T16:09:16;10.20;99.90
4985;DHT22;2509;49.902;8.600;2022-12-29T16:12:20;10.20;99.90
4985;DHT22;2509;49.902;8.600;2022-12-29T16:15:22;10.10;99.90
4985;DHT22;2509;49.902;8.600;2022-12-29T16:18:32;10.00;99.90
4985;DHT22;2509;49.902;8.600;2022-12-29T16:21:36;10.00;99.90
4985;DHT22;2509;49.902;8.600;2022-12-29T16:24:39;10.00;99.90
4985;DHT22;2509;49.902;8.600;2022-12-29T16:27:42;9.90;99.90
4985;DHT22;2509;49.902;8.600;2022-12-29T16:30:44;9.90;99.90
4985;DHT22;2509;49.902;8.600;2022-12-29T16:33:48;9.90;99.90
4985;DHT22;2509;49.902;8.600;2022-12-29T16:36:55;9.90;99.90
4985;DHT22;2509;49.902;8.600;2022-12-29T16:40:25;9.80;99.90
4985;DHT22;2509;49.902;8.600;2022-12-29T16:43:28;9.80;99.90
4985;DHT22;2509;49.902;8.600;2022-12-29T16:46:31;9.80;99.90
4985;DHT22;2509;49.902;8.600;2022-12-29T16:49:35;9.80;99.90
4985;DHT22;2509;49.902;8.600;2022-12-29T16:52:38;9.70;99.90
4985;DHT22;2509;49.902;8.600;2022-12-29T16:55:46;9.70;99.90
4985;DHT22;2509;49.902;8.600;2022-12-29T16:58:48;9.60;99.90
4985;DHT22;2509;49.902;8.600;2022-12-29T17:01:51;9.60;99.90
4985;DHT22;2509;49.902;8.600;2022-12-29T17:04:54;9.60;99.90
4985;DHT22;2509;49.902;8.600;2022-12-29T17:07:56;9.60;99.90
4985;DHT22;2509;49.902;8.600;2022-12-29T17:11:01;9.50;99.90
4985;DHT22;2509;49.902;8.600;2022-12-29T17:14:30;9.60;99.90
4985;DHT22;2509;49.902;8.600;2022-12-29T17:17:35;9.60;99.90
4985;DHT22;2509;49.902;8.600;2022-12-29T17:20:39;9.60;99.90
4985;DHT22;2509;49.902;8.600;2022-12-29T17:23:41;9.50;99.90
4985;DHT22;2509;49.902;8.600;2022-12-29T17:26:44;9.50;99.90
4985;DHT22;2509;49.902;8.600;2022-12-29T17:29:47;9.50;99.90
4985;DHT22;2509;49.902;8.600;2022-12-29T17:32:51;9.40;99.90
4985;DHT22;2509;49.902;8.600;2022-12-29T17:35:54;9.40;99.90
4985;DHT22;2509;49.902;8.600;2022-12-29T17:38:56;9.40;99.90
4985;DHT22;2509;49.902;8.600;2022-12-29T17:41:58;9.40;99.90
4985;DHT22;2509;49.902;8.600;2022-12-29T17:45:00;9.40;99.90
4985;DHT22;2509;49.902;8.600;2022-12-29T17:48:10;9.40;99.90
4985;DHT22;2509;49.902;8.600;2022-12-29T17:51:20;9.30;99.90
4985;DHT22;2509;49.902;8.600;2022-12-29T17:54:24;9.40;99.90
4985;DHT22;2509;49.902;8.600;2022-12-29T17:57:26;9.40;99.90
4985;DHT22;2509;49.902;8.600;2022-12-29T18:00:29;9.40;99.90
4985;DHT22;2509;49.902;8.600;2022-12-29T18:03:33;9.30;99.90
4985;DHT22;2509;49.902;8.600;2022-12-29T18:06:36;9.40;99.90
4985;DHT22;2509;49.902;8.600;2022-12-29T18:09:38;9.40;99.90
4985;DHT22;2509;49.902;8.600;2022-12-29T18:12:41;9.30;99.90
4985;DHT22;2509;49.902;8.600;2022-12-29T18:15:43;9.30;99.90
4985;DHT22;2509;49.902;8.600;2022-12-29T18:18:46;9.30;99.90
4985;DHT22;2509;49.902;8.600;2022-12-29T18:21:49;9.30;99.90
4985;DHT22;2509;49.902;8.600;2022-12-29T18:24:51;9.30;99.90
4985;DHT22;2509;49.902;8.600;2022-12-29T18:27:53;9.30;99.90
4985;DHT22;2509;49.902;8.600;2022-12-29T18:30:57;9.30;99.90
4985;DHT22;2509;49.902;8.600;2022-12-29T18:34:01;9.30;99.90
4985;DHT22;2509;49.902;8.600;2022-12-29T18:37:04;9.30;99.90
4985;DHT22;2509;49.902;8.600;2022-12-29T18:40:08;9.30;99.90
4985;DHT22;2509;49.902;8.600;2022-12-29T18:43:12;9.30;99.90
4985;DHT22;2509;49.902;8.600;2022-12-29T18:46:15;9.30;99.90
4985;DHT22;2509;49.902;8.600;2022-12-29T18:49:17;9.30;99.90
4985;DHT22;2509;49.902;8.600;2022-12-29T18:52:20;9.30;99.90
4985;DHT22;2509;49.902;8.600;2022-12-29T18:55:23;9.30;99.90
4985;DHT22;2509;49.902;8.600;2022-12-29T18:58:25;9.30;99.90
4985;DHT22;2509;49.902;8.600;2022-12-29T19:01:28;9.30;99.90
4985;DHT22;2509;49.902;8.600;2022-12-29T19:04:30;9.30;99.90
4985;DHT22;2509;49.902;8.600;2022-12-29T19:07:33;9.20;99.90
4985;DHT22;2509;49.902;8.600;2022-12-29T19:10:36;9.20;99.90
4985;DHT22;2509;49.902;8.600;2022-12-29T19:13:38;9.20;99.90
4985;DHT22;2509;49.902;8.600;2022-12-29T19:16:40;9.30;99.90
4985;DHT22;2509;49.902;8.600;2022-12-29T19:19:42;9.20;99.90
4985;DHT22;2509;49.902;8.600;2022-12-29T19:22:45;9.20;99.90
4985;DHT22;2509;49.902;8.600;2022-12-29T19:25:47;9.20;99.90
4985;DHT22;2509;49.902;8.600;2022-12-29T19:28:49;9.20;99.90
4985;DHT22;2509;49.902;8.600;2022-12-29T19:31:51;9.10;99.90
4985;DHT22;2509;49.902;8.600;2022-12-29T19:34:53;9.20;99.90
4985;DHT22;2509;49.902;8.600;2022-12-29T19:37:56;9.20;99.90
4985;DHT22;2509;49.902;8.600;2022-12-29T19:40:58;9.20;99.90
4985;DHT22;2509;49.902;8.600;2022-12-29T19:43:59;9.20;99.90
4985;DHT22;2509;49.902;8.600;2022-12-29T19:47:01;9.20;99.90
4985;DHT22;2509;49.902;8.600;2022-12-29T19:50:06;9.20;99.90
4985;DHT22;2509;49.902;8.600;2022-12-29T19:53:10;9.20;99.90
4985;DHT22;2509;49.902;8.600;2022-12-29T19:56:12;9.10;99.90
4985;DHT22;2509;49.902;8.600;2022-12-29T19:59:14;9.10;99.90
4985;DHT22;2509;49.902;8.600;2022-12-29T20:02:19;9.10;99.90
4985;DHT22;2509;49.902;8.600;2022-12-29T20:05:21;9.00;99.90
4985;DHT22;2509;49.902;8.600;2022-12-29T20:08:24;9.00;99.90
4985;DHT22;2509;49.902;8.600;2022-12-29T20:11:26;8.90;99.90
4985;DHT22;2509;49.902;8.600;2022-12-29T20:14:28;9.00;99.90